sensor_id;sensor_type;location;lat;lon;timestamp;P1;durP1;ratioP1;P2;durP2;ratioP2
18072;SDS011;9161;47.348;9.648;2023-06-14T00:00:30;6.33;;;2.90;;
18072;SDS011;9161;47.348;9.648;2023-06-14T00:05:36;5.73;;;3.10;;
18072;SDS011;9161;47.348;9.648;2023-06-14T00:10:41;4.10;;;2.50;;
18072;SDS011;9161;47.348;9.648;2023-06-14T00:15:43;4.10;;;2.80;;
18072;SDS011;9161;47.348;9.648;2023-06-14T00:20:46;4.67;;;3.00;;
18072;SDS011;9161;47.348;9.648;2023-06-14T00:25:49;7.67;;;3.70;;
18072;SDS011;9161;47.348;9.648;2023-06-14T00:30:51;4.07;;;2.80;;
18072;SDS011;9161;47.348;9.648;2023-06-14T00:35:54;5.37;;;2.77;;
18072;SDS011;9161;47.348;9.648;2023-06-14T00:40:57;5.40;;;3.00;;
18072;SDS011;9161;47.348;9.648;2023-06-14T00:45:59;4.73;;;2.77;;
18072;SDS011;9161;47.348;9.648;2023-06-14T00:51:05;6.03;;;2.77;;
18072;SDS011;9161;47.348;9.648;2023-06-14T00:56:07;5.60;;;3.00;;
18072;SDS011;9161;47.348;9.648;2023-06-14T01:01:09;4.23;;;2.63;;
18072;SDS011;9161;47.348;9.648;2023-06-14T01:06:18;5.00;;;3.20;;
18072;SDS011;9161;47.348;9.648;2023-06-14T01:11:31;5.50;;;2.83;;
18072;SDS011;9161;47.348;9.648;2023-06-14T01:16:37;11.77;;;3.47;;
18072;SDS011;9161;47.348;9.648;2023-06-14T01:21:41;7.90;;;3.00;;
18072;SDS011;9161;47.348;9.648;2023-06-14T01:26:44;8.40;;;3.07;;
18072;SDS011;9161;47.348;9.648;2023-06-14T01:31:52;6.30;;;3.10;;
18072;SDS011;9161;47.348;9.648;2023-06-14T01:36:57;5.07;;;2.87;;
18072;SDS011;9161;47.348;9.648;2023-06-14T01:42:06;7.10;;;2.90;;
18072;SDS011;9161;47.348;9.648;2023-06-14T01:47:09;6.27;;;3.23;;
18072;SDS011;9161;47.348;9.648;2023-06-14T01:52:13;5.27;;;3.30;;
18072;SDS011;9161;47.348;9.648;2023-06-14T01:57:17;5.13;;;2.80;;
18072;SDS011;9161;47.348;9.648;2023-06-14T02:02:20;4.40;;;2.80;;
18072;SDS011;9161;47.348;9.648;2023-06-14T02:07:23;5.83;;;3.13;;
18072;SDS011;9161;47.348;9.648;2023-06-14T02:12:27;5.77;;;2.67;;
18072;SDS011;9161;47.348;9.648;2023-06-14T02:17:29;4.97;;;2.80;;
18072;SDS011;9161;47.348;9.648;2023-06-14T02:22:32;4.90;;;2.90;;
18072;SDS011;9161;47.348;9.648;2023-06-14T02:27:36;7.53;;;3.13;;
18072;SDS011;9161;47.348;9.648;2023-06-14T02:32:40;5.80;;;3.00;;
18072;SDS011;9161;47.348;9.648;2023-06-14T02:37:43;4.60;;;2.97;;
18072;SDS011;9161;47.348;9.648;2023-06-14T02:42:46;7.13;;;3.20;;
18072;SDS011;9161;47.348;9.648;2023-06-14T02:47:48;4.83;;;3.00;;
18072;SDS011;9161;47.348;9.648;2023-06-14T02:52:51;8.53;;;3.60;;
18072;SDS011;9161;47.348;9.648;2023-06-14T02:57:58;5.50;;;3.20;;
18072;SDS011;9161;47.348;9.648;2023-06-14T03:03:00;9.97;;;2.80;;
18072;SDS011;9161;47.348;9.648;2023-06-14T03:08:02;30.07;;;4.50;;
18072;SDS011;9161;47.348;9.648;2023-06-14T03:13:07;14.80;;;3.17;;
18072;SDS011;9161;47.348;9.648;2023-06-14T03:18:10;6.63;;;3.23;;
18072;SDS011;9161;47.348;9.648;2023-06-14T03:23:13;9.67;;;3.43;;
18072;SDS011;9161;47.348;9.648;2023-06-14T03:28:17;8.97;;;3.23;;
18072;SDS011;9161;47.348;9.648;2023-06-14T03:33:20;6.53;;;3.37;;
18072;SDS011;9161;47.348;9.648;2023-06-14T03:38:22;5.40;;;2.97;;
18072;SDS011;9161;47.348;9.648;2023-06-14T03:43:25;5.03;;;3.10;;
18072;SDS011;9161;47.348;9.648;2023-06-14T03:48:27;8.80;;;3.43;;
18072;SDS011;9161;47.348;9.648;2023-06-14T03:53:30;9.27;;;3.70;;
18072;SDS011;9161;47.348;9.648;2023-06-14T03:58:35;8.37;;;3.70;;
18072;SDS011;9161;47.348;9.648;2023-06-14T04:03:41;14.70;;;4.07;;
18072;SDS011;9161;47.348;9.648;2023-06-14T04:08:50;5.93;;;3.50;;
18072;SDS011;9161;47.348;9.648;2023-06-14T04:13:54;11.13;;;3.60;;
18072;SDS011;9161;47.348;9.648;2023-06-14T04:18:57;6.73;;;3.23;;
18072;SDS011;9161;47.348;9.648;2023-06-14T04:23:59;30.63;;;5.00;;
18072;SDS011;9161;47.348;9.648;2023-06-14T04:29:03;25.07;;;6.07;;
18072;SDS011;9161;47.348;9.648;2023-06-14T04:34:05;94.77;;;8.43;;
18072;SDS011;9161;47.348;9.648;2023-06-14T04:39:08;15.73;;;4.00;;
18072;SDS011;9161;47.348;9.648;2023-06-14T04:44:12;29.17;;;5.30;;
18072;SDS011;9161;47.348;9.648;2023-06-14T04:49:17;109.10;;;9.03;;
18072;SDS011;9161;47.348;9.648;2023-06-14T04:54:19;43.57;;;6.53;;
18072;SDS011;9161;47.348;9.648;2023-06-14T04:59:23;18.80;;;4.53;;
18072;SDS011;9161;47.348;9.648;2023-06-14T05:04:25;31.47;;;5.43;;
18072;SDS011;9161;47.348;9.648;2023-06-14T05:09:29;41.07;;;5.60;;
18072;SDS011;9161;47.348;9.648;2023-06-14T05:14:32;23.03;;;4.87;;
18072;SDS011;9161;47.348;9.648;2023-06-14T05:19:34;8.27;;;3.83;;
18072;SDS011;9161;47.348;9.648;2023-06-14T05:24:36;13.73;;;4.17;;
18072;SDS011;9161;47.348;9.648;2023-06-14T05:29:40;9.77;;;3.67;;
18072;SDS011;9161;47.348;9.648;2023-06-14T05:34:42;16.53;;;4.73;;
18072;SDS011;9161;47.348;9.648;2023-06-14T05:39:44;10.10;;;4.30;;
18072;SDS011;9161;47.348;9.648;2023-06-14T05:44:48;40.50;;;5.10;;
18072;SDS011;9161;47.348;9.648;2023-06-14T05:49:50;13.83;;;4.63;;
18072;SDS011;9161;47.348;9.648;2023-06-14T05:54:52;78.00;;;8.07;;
18072;SDS011;9161;47.348;9.648;2023-06-14T05:59:56;36.27;;;5.80;;
18072;SDS011;9161;47.348;9.648;2023-06-14T06:04:59;9.30;;;4.13;;
18072;SDS011;9161;47.348;9.648;2023-06-14T06:10:01;15.97;;;3.63;;
18072;SDS011;9161;47.348;9.648;2023-06-14T06:15:06;6.60;;;3.70;;
18072;SDS011;9161;47.348;9.648;2023-06-14T06:20:12;6.57;;;3.35;;
18072;SDS011;9161;47.348;9.648;2023-06-14T06:25:15;11.20;;;3.60;;
18072;SDS011;9161;47.348;9.648;2023-06-14T06:30:19;5.75;;;2.88;;
18072;SDS011;9161;47.348;9.648;2023-06-14T06:35:21;8.27;;;3.42;;
18072;SDS011;9161;47.348;9.648;2023-06-14T06:40:23;5.55;;;3.25;;
18072;SDS011;9161;47.348;9.648;2023-06-14T06:45:27;9.35;;;3.45;;
18072;SDS011;9161;47.348;9.648;2023-06-14T06:50:30;6.10;;;3.05;;
18072;SDS011;9161;47.348;9.648;2023-06-14T06:55:33;6.75;;;3.08;;
18072;SDS011;9161;47.348;9.648;2023-06-14T07:00:36;10.30;;;3.20;;
18072;SDS011;9161;47.348;9.648;2023-06-14T07:05:38;6.80;;;3.10;;
18072;SDS011;9161;47.348;9.648;2023-06-14T07:10:41;6.22;;;3.30;;
18072;SDS011;9161;47.348;9.648;2023-06-14T07:15:44;9.90;;;3.63;;
18072;SDS011;9161;47.348;9.648;2023-06-14T07:20:46;8.50;;;3.92;;
18072;SDS011;9161;47.348;9.648;2023-06-14T07:25:48;6.10;;;3.63;;
18072;SDS011;9161;47.348;9.648;2023-06-14T07:30:52;6.65;;;3.30;;
18072;SDS011;9161;47.348;9.648;2023-06-14T07:35:55;7.45;;;3.28;;
18072;SDS011;9161;47.348;9.648;2023-06-14T07:40:57;9.13;;;3.60;;
18072;SDS011;9161;47.348;9.648;2023-06-14T07:46:00;6.82;;;3.33;;
18072;SDS011;9161;47.348;9.648;2023-06-14T07:51:07;12.07;;;3.67;;
18072;SDS011;9161;47.348;9.648;2023-06-14T07:56:08;5.63;;;3.40;;
18072;SDS011;9161;47.348;9.648;2023-06-14T08:01:12;7.00;;;3.42;;
18072;SDS011;9161;47.348;9.648;2023-06-14T08:06:15;7.50;;;3.15;;
18072;SDS011;9161;47.348;9.648;2023-06-14T08:11:17;7.60;;;3.45;;
18072;SDS011;9161;47.348;9.648;2023-06-14T08:16:21;5.70;;;3.10;;
18072;SDS011;9161;47.348;9.648;2023-06-14T08:21:23;11.13;;;3.40;;
18072;SDS011;9161;47.348;9.648;2023-06-14T08:26:29;4.97;;;3.28;;
18072;SDS011;9161;47.348;9.648;2023-06-14T08:31:33;7.90;;;3.80;;
18072;SDS011;9161;47.348;9.648;2023-06-14T08:36:36;10.73;;;3.25;;
18072;SDS011;9161;47.348;9.648;2023-06-14T08:41:38;8.07;;;3.67;;
18072;SDS011;9161;47.348;9.648;2023-06-14T08:46:42;6.18;;;3.20;;
18072;SDS011;9161;47.348;9.648;2023-06-14T08:51:45;14.73;;;4.13;;
18072;SDS011;9161;47.348;9.648;2023-06-14T08:56:47;8.57;;;3.60;;
18072;SDS011;9161;47.348;9.648;2023-06-14T09:01:52;8.15;;;3.58;;
18072;SDS011;9161;47.348;9.648;2023-06-14T09:07:11;7.00;;;3.25;;
18072;SDS011;9161;47.348;9.648;2023-06-14T09:12:14;8.90;;;3.70;;
18072;SDS011;9161;47.348;9.648;2023-06-14T09:17:17;4.85;;;3.40;;
18072;SDS011;9161;47.348;9.648;2023-06-14T09:22:19;5.70;;;3.22;;
18072;SDS011;9161;47.348;9.648;2023-06-14T09:27:21;6.18;;;3.50;;
18072;SDS011;9161;47.348;9.648;2023-06-14T09:32:25;10.88;;;3.20;;
18072;SDS011;9161;47.348;9.648;2023-06-14T09:37:28;10.85;;;3.65;;
18072;SDS011;9161;47.348;9.648;2023-06-14T09:42:31;8.98;;;3.17;;
18072;SDS011;9161;47.348;9.648;2023-06-14T09:47:37;5.35;;;3.15;;
18072;SDS011;9161;47.348;9.648;2023-06-14T09:52:52;6.55;;;3.47;;
18072;SDS011;9161;47.348;9.648;2023-06-14T09:58:00;8.50;;;3.50;;
18072;SDS011;9161;47.348;9.648;2023-06-14T10:03:11;13.60;;;3.60;;
18072;SDS011;9161;47.348;9.648;2023-06-14T10:08:15;14.43;;;4.10;;
18072;SDS011;9161;47.348;9.648;2023-06-14T10:13:20;5.07;;;3.38;;
18072;SDS011;9161;47.348;9.648;2023-06-14T10:18:27;5.47;;;3.58;;
18072;SDS011;9161;47.348;9.648;2023-06-14T10:23:35;6.35;;;3.85;;
18072;SDS011;9161;47.348;9.648;2023-06-14T10:28:41;9.38;;;3.13;;
18072;SDS011;9161;47.348;9.648;2023-06-14T10:33:59;10.85;;;3.55;;
18072;SDS011;9161;47.348;9.648;2023-06-14T10:39:03;3.95;;;3.28;;
18072;SDS011;9161;47.348;9.648;2023-06-14T10:49:38;7.82;;;3.30;;
18072;SDS011;9161;47.348;9.648;2023-06-14T10:55:02;7.93;;;3.05;;
18072;SDS011;9161;47.348;9.648;2023-06-14T11:00:06;7.80;;;3.40;;
18072;SDS011;9161;47.348;9.648;2023-06-14T11:05:20;6.32;;;2.83;;
18072;SDS011;9161;47.348;9.648;2023-06-14T11:10:31;18.02;;;4.10;;
18072;SDS011;9161;47.348;9.648;2023-06-14T11:15:38;6.05;;;3.13;;
18072;SDS011;9161;47.348;9.648;2023-06-14T11:20:46;5.95;;;3.20;;
18072;SDS011;9161;47.348;9.648;2023-06-14T11:25:52;4.70;;;2.58;;
18072;SDS011;9161;47.348;9.648;2023-06-14T11:31:00;9.43;;;3.35;;
18072;SDS011;9161;47.348;9.648;2023-06-14T11:36:05;5.82;;;3.22;;
18072;SDS011;9161;47.348;9.648;2023-06-14T11:41:08;23.30;;;3.70;;
18072;SDS011;9161;47.348;9.648;2023-06-14T11:46:13;13.85;;;3.65;;
18072;SDS011;9161;47.348;9.648;2023-06-14T11:51:20;5.88;;;2.90;;
18072;SDS011;9161;47.348;9.648;2023-06-14T11:56:21;7.25;;;2.90;;
18072;SDS011;9161;47.348;9.648;2023-06-14T12:01:23;5.80;;;3.00;;
18072;SDS011;9161;47.348;9.648;2023-06-14T12:06:27;5.15;;;3.10;;
18072;SDS011;9161;47.348;9.648;2023-06-14T12:11:34;9.68;;;2.97;;
18072;SDS011;9161;47.348;9.648;2023-06-14T12:16:37;5.97;;;3.03;;
18072;SDS011;9161;47.348;9.648;2023-06-14T12:21:42;11.80;;;3.33;;
18072;SDS011;9161;47.348;9.648;2023-06-14T12:26:46;5.53;;;3.15;;
18072;SDS011;9161;47.348;9.648;2023-06-14T12:31:49;7.95;;;3.40;;
18072;SDS011;9161;47.348;9.648;2023-06-14T12:36:52;14.50;;;4.00;;
18072;SDS011;9161;47.348;9.648;2023-06-14T12:41:54;9.07;;;3.30;;
18072;SDS011;9161;47.348;9.648;2023-06-14T12:46:56;4.60;;;3.13;;
18072;SDS011;9161;47.348;9.648;2023-06-14T12:52:00;12.68;;;3.33;;
18072;SDS011;9161;47.348;9.648;2023-06-14T12:57:03;13.70;;;3.42;;
18072;SDS011;9161;47.348;9.648;2023-06-14T13:02:12;6.32;;;2.92;;
18072;SDS011;9161;47.348;9.648;2023-06-14T13:07:17;6.53;;;2.80;;
18072;SDS011;9161;47.348;9.648;2023-06-14T13:12:19;13.25;;;3.50;;
18072;SDS011;9161;47.348;9.648;2023-06-14T13:17:21;6.65;;;3.00;;
18072;SDS011;9161;47.348;9.648;2023-06-14T13:22:25;4.90;;;3.15;;
18072;SDS011;9161;47.348;9.648;2023-06-14T13:27:27;5.93;;;3.33;;
18072;SDS011;9161;47.348;9.648;2023-06-14T13:32:29;10.38;;;3.28;;
18072;SDS011;9161;47.348;9.648;2023-06-14T13:37:34;16.98;;;3.75;;
18072;SDS011;9161;47.348;9.648;2023-06-14T13:42:36;8.02;;;3.13;;
18072;SDS011;9161;47.348;9.648;2023-06-14T13:47:38;4.43;;;2.75;;
18072;SDS011;9161;47.348;9.648;2023-06-14T13:52:42;8.75;;;2.90;;
18072;SDS011;9161;47.348;9.648;2023-06-14T13:57:44;5.72;;;2.97;;
18072;SDS011;9161;47.348;9.648;2023-06-14T14:02:46;3.85;;;2.92;;
18072;SDS011;9161;47.348;9.648;2023-06-14T14:07:52;7.75;;;3.15;;
18072;SDS011;9161;47.348;9.648;2023-06-14T14:12:54;8.52;;;3.10;;
18072;SDS011;9161;47.348;9.648;2023-06-14T14:17:57;5.03;;;3.00;;
18072;SDS011;9161;47.348;9.648;2023-06-14T14:23:00;17.20;;;3.80;;
18072;SDS011;9161;47.348;9.648;2023-06-14T14:28:03;8.95;;;3.05;;
18072;SDS011;9161;47.348;9.648;2023-06-14T14:33:05;15.85;;;3.45;;
18072;SDS011;9161;47.348;9.648;2023-06-14T14:38:09;9.18;;;3.17;;
18072;SDS011;9161;47.348;9.648;2023-06-14T14:43:11;32.10;;;3.92;;
18072;SDS011;9161;47.348;9.648;2023-06-14T14:48:14;4.55;;;2.83;;
18072;SDS011;9161;47.348;9.648;2023-06-14T14:53:17;9.98;;;3.30;;
18072;SDS011;9161;47.348;9.648;2023-06-14T14:58:20;21.35;;;3.88;;
18072;SDS011;9161;47.348;9.648;2023-06-14T15:03:22;3.45;;;2.90;;
18072;SDS011;9161;47.348;9.648;2023-06-14T15:08:25;9.02;;;3.00;;
18072;SDS011;9161;47.348;9.648;2023-06-14T15:13:27;4.80;;;2.70;;
18072;SDS011;9161;47.348;9.648;2023-06-14T15:18:29;7.57;;;2.92;;
18072;SDS011;9161;47.348;9.648;2023-06-14T15:23:33;4.10;;;2.53;;
18072;SDS011;9161;47.348;9.648;2023-06-14T15:28:35;6.03;;;2.85;;
18072;SDS011;9161;47.348;9.648;2023-06-14T15:33:37;5.90;;;2.97;;
18072;SDS011;9161;47.348;9.648;2023-06-14T15:38:40;5.50;;;2.75;;
18072;SDS011;9161;47.348;9.648;2023-06-14T15:43:43;10.18;;;3.20;;
18072;SDS011;9161;47.348;9.648;2023-06-14T15:48:46;9.32;;;3.03;;
18072;SDS011;9161;47.348;9.648;2023-06-14T15:53:49;4.10;;;2.88;;
18072;SDS011;9161;47.348;9.648;2023-06-14T15:58:52;4.93;;;2.80;;
18072;SDS011;9161;47.348;9.648;2023-06-14T16:03:54;7.68;;;3.22;;
18072;SDS011;9161;47.348;9.648;2023-06-14T16:08:58;13.65;;;3.05;;
18072;SDS011;9161;47.348;9.648;2023-06-14T16:14:03;8.27;;;3.10;;
18072;SDS011;9161;47.348;9.648;2023-06-14T16:19:05;4.35;;;2.40;;
18072;SDS011;9161;47.348;9.648;2023-06-14T16:24:10;7.97;;;2.78;;
18072;SDS011;9161;47.348;9.648;2023-06-14T16:29:15;5.68;;;2.95;;
18072;SDS011;9161;47.348;9.648;2023-06-14T16:34:18;7.60;;;2.72;;
18072;SDS011;9161;47.348;9.648;2023-06-14T16:39:22;5.45;;;2.80;;
18072;SDS011;9161;47.348;9.648;2023-06-14T16:44:25;7.45;;;2.65;;
18072;SDS011;9161;47.348;9.648;2023-06-14T16:49:28;3.08;;;2.47;;
18072;SDS011;9161;47.348;9.648;2023-06-14T16:54:32;4.32;;;2.92;;
18072;SDS011;9161;47.348;9.648;2023-06-14T16:59:35;6.60;;;2.88;;
18072;SDS011;9161;47.348;9.648;2023-06-14T17:04:37;5.07;;;2.75;;
18072;SDS011;9161;47.348;9.648;2023-06-14T17:09:42;37.67;;;4.38;;
18072;SDS011;9161;47.348;9.648;2023-06-14T17:14:45;15.07;;;3.38;;
18072;SDS011;9161;47.348;9.648;2023-06-14T17:19:52;23.27;;;3.38;;
18072;SDS011;9161;47.348;9.648;2023-06-14T17:24:57;5.20;;;2.60;;
18072;SDS011;9161;47.348;9.648;2023-06-14T17:30:00;9.85;;;2.60;;
18072;SDS011;9161;47.348;9.648;2023-06-14T17:35:03;12.13;;;2.97;;
18072;SDS011;9161;47.348;9.648;2023-06-14T17:40:08;7.80;;;2.80;;
18072;SDS011;9161;47.348;9.648;2023-06-14T17:45:11;7.95;;;2.55;;
18072;SDS011;9161;47.348;9.648;2023-06-14T17:50:14;9.02;;;2.78;;
18072;SDS011;9161;47.348;9.648;2023-06-14T17:55:19;9.60;;;3.10;;
18072;SDS011;9161;47.348;9.648;2023-06-14T18:00:22;6.53;;;2.78;;
18072;SDS011;9161;47.348;9.648;2023-06-14T18:05:32;10.25;;;3.17;;
18072;SDS011;9161;47.348;9.648;2023-06-14T18:17:29;10.60;;;2.70;;
18072;SDS011;9161;47.348;9.648;2023-06-14T18:22:32;5.70;;;2.80;;
18072;SDS011;9161;47.348;9.648;2023-06-14T18:27:35;13.40;;;2.83;;
18072;SDS011;9161;47.348;9.648;2023-06-14T18:32:40;5.00;;;2.70;;
18072;SDS011;9161;47.348;9.648;2023-06-14T18:37:48;6.25;;;2.63;;
18072;SDS011;9161;47.348;9.648;2023-06-14T18:42:51;8.20;;;3.03;;
18072;SDS011;9161;47.348;9.648;2023-06-14T18:47:55;7.07;;;2.97;;
18072;SDS011;9161;47.348;9.648;2023-06-14T18:52:59;6.75;;;3.08;;
18072;SDS011;9161;47.348;9.648;2023-06-14T18:58:03;6.57;;;2.65;;
18072;SDS011;9161;47.348;9.648;2023-06-14T19:03:07;13.32;;;3.03;;
18072;SDS011;9161;47.348;9.648;2023-06-14T19:08:11;8.45;;;2.80;;
18072;SDS011;9161;47.348;9.648;2023-06-14T19:13:16;6.60;;;3.45;;
18072;SDS011;9161;47.348;9.648;2023-06-14T19:18:21;4.15;;;3.10;;
18072;SDS011;9161;47.348;9.648;2023-06-14T19:23:25;7.72;;;2.78;;
18072;SDS011;9161;47.348;9.648;2023-06-14T19:28:28;4.88;;;2.80;;
18072;SDS011;9161;47.348;9.648;2023-06-14T19:33:33;15.48;;;3.30;;
18072;SDS011;9161;47.348;9.648;2023-06-14T19:38:36;19.85;;;3.60;;
18072;SDS011;9161;47.348;9.648;2023-06-14T19:43:39;10.02;;;2.78;;
18072;SDS011;9161;47.348;9.648;2023-06-14T19:48:45;4.93;;;2.88;;
18072;SDS011;9161;47.348;9.648;2023-06-14T19:53:53;6.50;;;3.28;;
18072;SDS011;9161;47.348;9.648;2023-06-14T19:58:56;32.17;;;3.85;;
18072;SDS011;9161;47.348;9.648;2023-06-14T20:04:01;5.60;;;3.10;;
18072;SDS011;9161;47.348;9.648;2023-06-14T20:09:05;7.28;;;3.10;;
18072;SDS011;9161;47.348;9.648;2023-06-14T20:14:15;6.57;;;3.30;;
18072;SDS011;9161;47.348;9.648;2023-06-14T20:19:19;5.50;;;3.15;;
18072;SDS011;9161;47.348;9.648;2023-06-14T20:24:23;15.15;;;3.42;;
18072;SDS011;9161;47.348;9.648;2023-06-14T20:29:26;6.78;;;3.05;;
18072;SDS011;9161;47.348;9.648;2023-06-14T20:34:34;19.23;;;3.83;;
18072;SDS011;9161;47.348;9.648;2023-06-14T20:39:38;14.23;;;4.07;;
18072;SDS011;9161;47.348;9.648;2023-06-14T20:44:40;8.25;;;3.50;;
18072;SDS011;9161;47.348;9.648;2023-06-14T20:49:44;10.18;;;4.05;;
18072;SDS011;9161;47.348;9.648;2023-06-14T20:54:47;6.35;;;3.45;;
18072;SDS011;9161;47.348;9.648;2023-06-14T20:59:49;5.35;;;3.28;;
18072;SDS011;9161;47.348;9.648;2023-06-14T21:04:55;8.18;;;3.20;;
18072;SDS011;9161;47.348;9.648;2023-06-14T21:09:59;6.13;;;3.92;;
18072;SDS011;9161;47.348;9.648;2023-06-14T21:15:01;8.98;;;4.68;;
18072;SDS011;9161;47.348;9.648;2023-06-14T21:20:07;10.40;;;3.90;;
18072;SDS011;9161;47.348;9.648;2023-06-14T21:25:09;6.25;;;3.35;;
18072;SDS011;9161;47.348;9.648;2023-06-14T21:30:14;9.82;;;3.30;;
18072;SDS011;9161;47.348;9.648;2023-06-14T21:35:19;10.38;;;3.90;;
18072;SDS011;9161;47.348;9.648;2023-06-14T21:40:22;6.73;;;3.50;;
18072;SDS011;9161;47.348;9.648;2023-06-14T21:45:27;5.65;;;3.10;;
18072;SDS011;9161;47.348;9.648;2023-06-14T21:50:30;4.82;;;2.88;;
18072;SDS011;9161;47.348;9.648;2023-06-14T21:55:32;5.67;;;3.30;;
18072;SDS011;9161;47.348;9.648;2023-06-14T22:00:35;6.90;;;3.97;;
18072;SDS011;9161;47.348;9.648;2023-06-14T22:05:38;7.83;;;3.97;;
18072;SDS011;9161;47.348;9.648;2023-06-14T22:10:43;7.27;;;3.70;;
18072;SDS011;9161;47.348;9.648;2023-06-14T22:15:46;5.03;;;3.20;;
18072;SDS011;9161;47.348;9.648;2023-06-14T22:20:49;4.80;;;3.37;;
18072;SDS011;9161;47.348;9.648;2023-06-14T22:25:53;5.67;;;2.87;;
18072;SDS011;9161;47.348;9.648;2023-06-14T22:30:55;7.97;;;3.37;;
18072;SDS011;9161;47.348;9.648;2023-06-14T22:35:59;5.70;;;3.20;;
18072;SDS011;9161;47.348;9.648;2023-06-14T22:41:04;5.00;;;3.43;;
18072;SDS011;9161;47.348;9.648;2023-06-14T22:46:13;6.87;;;3.43;;
18072;SDS011;9161;47.348;9.648;2023-06-14T22:51:24;9.83;;;3.80;;
18072;SDS011;9161;47.348;9.648;2023-06-14T22:56:27;9.20;;;3.77;;
18072;SDS011;9161;47.348;9.648;2023-06-14T23:01:32;6.20;;;3.20;;
18072;SDS011;9161;47.348;9.648;2023-06-14T23:06:36;4.70;;;3.07;;
18072;SDS011;9161;47.348;9.648;2023-06-14T23:11:38;7.77;;;3.30;;
18072;SDS011;9161;47.348;9.648;2023-06-14T23:16:42;6.30;;;3.37;;
18072;SDS011;9161;47.348;9.648;2023-06-14T23:21:50;6.93;;;3.47;;
18072;SDS011;9161;47.348;9.648;2023-06-14T23:26:56;6.43;;;3.40;;
18072;SDS011;9161;47.348;9.648;2023-06-14T23:31:59;4.80;;;2.80;;
18072;SDS011;9161;47.348;9.648;2023-06-14T23:37:02;4.77;;;3.17;;
18072;SDS011;9161;47.348;9.648;2023-06-14T23:42:06;5.83;;;2.97;;
18072;SDS011;9161;47.348;9.648;2023-06-14T23:47:10;7.60;;;2.70;;
18072;SDS011;9161;47.348;9.648;2023-06-14T23:52:14;5.73;;;3.30;;
18072;SDS011;9161;47.348;9.648;2023-06-14T23:57:17;6.23;;;3.10;;
